ADDS METAR Data INFO
IDs: Format: Raw Decoded Include TAF

Data at: 0214 UTC 18 Jan 2018

KD95 180155Z AUTO 25014G22KT 10SM CLR M05/M11 A3012 RMK AO2 T10531106
KD95 180135Z AUTO 24009G19KT 10SM CLR M05/M11 A3015 RMK AO2 T10511110
KD95 180115Z AUTO 24009G17KT 10SM CLR M05/M11 A3015 RMK AO2 T10501112
KD95 180055Z AUTO 24012G17KT 10SM CLR M05/M11 A3016 RMK AO2 T10471112
KD95 180035Z AUTO 24011G19KT 10SM CLR M05/M11 A3017 RMK AO2 T10461110
KD95 180015Z AUTO 24011G18KT 10SM CLR M04/M11 A3018 RMK AO2 T10431110
KD95 172355Z AUTO 24011G19KT 10SM CLR M04/M11 A3018 RMK AO2 T10411108 11032 21046
KD95 172335Z AUTO 23010G16KT 10SM CLR M04/M11 A3019 RMK AO2 T10401111
KD95 172315Z AUTO 26011G19KT 10SM CLR M04/M11 A3020 RMK AO2 T10371111
KD95 172255Z AUTO 25009KT 10SM CLR M04/M11 A3021 RMK AO2 T10371109
KD95 172235Z AUTO 25013G21KT 10SM CLR M03/M11 A3022 RMK AO2 T10351107
KD95 172215Z AUTO 26015G27KT 10SM CLR M03/M11 A3022 RMK AO2 T10351108
KD95 172155Z AUTO 25015G22KT 10SM CLR M03/M11 A3023 RMK AO2 T10321107
KD95 172135Z AUTO 26012G18KT 10SM CLR M03/M10 A3023 RMK AO2 T10321100
KD95 172115Z AUTO 25016G20KT 10SM CLR M03/M10 A3024 RMK AO2 T10351098
KD95 172055Z AUTO 25011G20KT 10SM CLR M03/M10 A3024 RMK AO2 T10351097
KD95 172035Z AUTO 26015G21KT 10SM CLR M04/M10 A3024 RMK AO2 T10361099
KD95 172015Z AUTO 25014G22KT 10SM CLR M04/M10 A3025 RMK AO2 T10361101
KD95 171955Z AUTO 25012G21KT 10SM SCT031 SCT110 M04/M10 A3026 RMK AO2 T10361099
KD95 171935Z AUTO 26013G21KT 10SM CLR M04/M10 A3027 RMK AO2 T10361096
KD95 171915Z AUTO 27014G17KT 10SM SCT120 M04/M10 A3027 RMK AO2 T10391099
KD95 171855Z AUTO 26016G21KT 3SM HZ CLR M04/M10 A3028 RMK AO2 T10451101
KD95 171835Z AUTO 26012G20KT 3SM HZ CLR M04/M10 A3029 RMK AO2 T10451102
KD95 171815Z AUTO 26015G21KT 1 1/2SM -SN SCT025 M04/M10 A3030 RMK AO2 T10451100
KD95 171755Z AUTO 26013G18KT 10SM SCT025 SCT120 M04/M10 A3031 RMK AO2 T10451100 11045 21182
KD95 171735Z AUTO 26010G17KT 10SM BKN110 M05/M10 A3033 RMK AO2 T10501101
KD95 171715Z AUTO 27011G17KT 10SM BKN110 M05/M10 A3035 RMK AO2 T10531102
KD95 171655Z AUTO 25010KT 3SM HZ CLR M06/M10 A3035 RMK AO2 T10611105
KD95 171635Z AUTO 25008G15KT 2SM HZ CLR M07/M11 A3037 RMK AO2 VIS 1/2V5 T10691108
KD95 171615Z AUTO 25008G15KT 2 1/2SM -SN CLR M08/M11 A3038 RMK AO2 VIS 1/2V5 T10801106
KD95 171555Z AUTO 25008KT 7SM -SN CLR M09/M11 A3040 RMK AO2 T10921108
KD95 171535Z AUTO 24008KT 10SM CLR M10/M12 A3040 RMK AO2 T11011116
KD95 171515Z AUTO 25009G14KT 10SM SCT020 SCT028 SCT036 M11/M12 A3041 RMK AO2 T11091123
KD95 171456Z AUTO 25007KT 7SM -SN BKN038 M12/M13 A3040 RMK AO2 T11171132
KD95 171435Z AUTO 25005KT 10SM OVC040 M12/M13 A3040 RMK AO2 T11201135
KD95 171415Z AUTO 25005KT 10SM OVC040 M12/M14 A3040 RMK AO2 T11251140
KD95 171355Z AUTO 27004KT 10SM OVC040 M13/M14 A3040 RMK AO2 T11281144
KD95 171335Z AUTO 24005KT 10SM OVC040 M13/M15 A3040 RMK AO2 T11311146
KD95 171315Z AUTO 24006KT 10SM OVC040 M13/M15 A3041 RMK AO2 T11331149
KD95 171255Z AUTO 24004KT 10SM OVC040 M15/M16 A3041 RMK AO2 T11461162
KD95 171235Z AUTO 00000KT 10SM OVC040 M16/M18 A3042 RMK AO2 T11581178
KD95 171215Z AUTO 00000KT 10SM OVC042 M18/M20 A3042 RMK AO2 T11771199
KD95 171155Z AUTO 24003KT 10SM OVC042 M19/M21 A3041 RMK AO2 T11931214 11129 21197
KD95 171135Z AUTO 23003KT 7SM BKN042 M17/M19 A3041 RMK AO2 T11711189
KD95 171115Z AUTO 26003KT 10SM CLR M17/M19 A3042 RMK AO2 T11671190
KD95 171055Z AUTO 26003KT 7SM CLR M19/M21 A3041 RMK AO2 T11871212
KD95 171035Z AUTO 25003KT 7SM CLR M18/M20 A3041 RMK AO2 T11781199
KD95 171015Z AUTO 00000KT 7SM CLR M18/M20 A3041 RMK AO2 T11771197
KD95 170955Z AUTO 00000KT 7SM CLR M19/M21 A3040 RMK AO2 T11861208
KD95 170935Z AUTO 00000KT 7SM CLR M17/M19 A3041 RMK AO2 T11711191
KD95 170915Z AUTO 22003KT 5SM BR CLR M17/M19 A3041 RMK AO2 T11721194
KD95 170855Z AUTO 00000KT 5SM BR CLR M17/M19 A3042 RMK AO2 T11691189
KD95 170835Z AUTO 00000KT 5SM BR CLR M17/M19 A3042 RMK AO2 T11711191
KD95 170815Z AUTO 00000KT 7SM CLR M16/M18 A3042 RMK AO2 T11601179
KD95 170755Z AUTO 00000KT 7SM CLR M16/M18 A3042 RMK AO2 T11581177
KD95 170735Z AUTO 00000KT 7SM CLR M15/M17 A3042 RMK AO2 T11511169
KD95 170715Z AUTO 25003KT 1 1/4SM -SN VV007 M14/M16 A3041 RMK AO2 T11451161
KD95 170655Z AUTO 27003KT 4SM -SN CLR M14/M16 A3041 RMK AO2 T11411158
KD95 170635Z AUTO 27004KT 7SM CLR M14/M16 A3041 RMK AO2 T11401157
KD95 170615Z AUTO 26003KT 7SM SCT010 M13/M15 A3041 RMK AO2 T11351150
KD95 170555Z AUTO 26005KT 7SM BKN010 M13/M14 A3041 RMK AO2 T11271142 11083 21150 410791185
KD95 170535Z AUTO 25004KT 7SM OVC010 M12/M13 A3041 RMK AO2 T11211135
KD95 170515Z AUTO 26004KT 7SM -SN SCT010 M12/M14 A3041 RMK AO2 T11241138
KD95 170455Z AUTO 25005KT 5SM -SN BKN010 M12/M14 A3042 RMK AO2 T11251139
KD95 170435Z AUTO 26004KT 7SM -SN BKN010 M13/M14 A3042 RMK AO2 T11281142
KD95 170415Z AUTO 00000KT 5SM BR BKN012 BKN030 M14/M15 A3042 RMK AO2 T11411155
KD95 170355Z AUTO 27003KT 5SM -SN SCT014 SCT030 M13/M14 A3042 RMK AO2 T11291143
KD95 170335Z AUTO 27003KT 7SM CLR M12/M13 A3042 RMK AO2 T11201131
KD95 170315Z AUTO 00000KT 7SM SCT010 M12/M13 A3042 RMK AO2 T11201132
KD95 170255Z AUTO 00000KT 7SM -SN CLR M11/M12 A3042 RMK AO2 T11121125
KD95 170235Z AUTO 28004KT 4SM -SN SCT014 BKN070 M11/M12 A3041 RMK AO2 T11071120
KD95 170215Z AUTO 30003KT 2SM -SN BKN014 BKN034 OVC070 M10/M12 A3041 RMK AO2 T11011116
KD95 170155Z AUTO 28003KT 3SM -SN SCT014 SCT034 OVC070 M10/M11 A3041 RMK AO2 T10991114
KD95 170135Z AUTO 00000KT 3SM -SN SCT014 OVC070 M09/M11 A3040 RMK AO2 T10941109
KD95 170115Z AUTO 29004KT 2 1/2SM -SN OVC070 M09/M11 A3040 RMK AO2 T10931109
KD95 170055Z AUTO 28003KT 2 1/2SM -SN OVC070 M09/M11 A3040 RMK AO2 T10901106
KD95 170035Z AUTO 29003KT 2SM -SN SCT025 BKN034 OVC070 M09/M10 A3040 RMK AO2 T10881105
KD95 170015Z AUTO 29004KT 1SM -SN BKN020 OVC025 M08/M10 A3040 RMK AO2 T10851101
KD95 162355Z AUTO 30004KT 1 3/4SM -SN OVC021 M08/M10 A3040 RMK AO2 T10821098 11079 21086
KD95 162335Z AUTO 30003KT 1 1/4SM -SN OVC017 M08/M10 A3039 RMK AO2 T10831100
KD95 162315Z AUTO 30004KT 1 3/4SM -SN OVC017 M08/M10 A3038 RMK AO2 T10841101
KD95 162255Z AUTO 30004KT 1 1/4SM -SN OVC017 M08/M10 A3038 RMK AO2 T10831101
KD95 162235Z AUTO 28005KT 1SM -SN OVC017 M08/M10 A3037 RMK AO2 T10841101
KD95 162215Z AUTO 29006KT 1 1/2SM -SN BKN019 OVC031 M08/M10 A3037 RMK AO2 T10841103
KD95 162155Z AUTO 28006KT 1 1/2SM -SN SCT013 OVC021 M08/M10 A3036 RMK AO2 T10831102
KD95 162135Z AUTO 28006KT 2SM -SN BKN017 OVC023 M08/M10 A3035 RMK AO2 T10831101
KD95 162115Z AUTO 27006KT 1 1/2SM -SN OVC015 M08/M10 A3035 RMK AO2 T10831103
KD95 162055Z AUTO 28005KT 1SM -SN OVC015 M08/M10 A3035 RMK AO2 T10821101
KD95 162035Z AUTO 27007KT 1SM -SN BKN015 OVC026 M08/M10 A3035 RMK AO2 T10801101
KD95 162015Z AUTO 27005KT 1 1/2SM -SN OVC024 M08/M10 A3035 RMK AO2 T10801101
KD95 161955Z AUTO 27006KT 1SM -SN BKN015 OVC024 M08/M10 A3035 RMK AO2 T10801100
KD95 161935Z AUTO 25006KT 2 1/2SM -SN OVC013 M08/M10 A3034 RMK AO2 T10801103
KD95 161915Z AUTO 27006KT 4SM -SN OVC015 M08/M10 A3034 RMK AO2 T10791102
KD95 161855Z AUTO 25006KT 5SM -SN OVC012 M08/M10 A3034 RMK AO2 T10801101
KD95 161835Z AUTO 29007KT 5SM -SN OVC012 M08/M10 A3034 RMK AO2 T10831100
KD95 161815Z AUTO 29006KT 7SM -SN OVC012 M08/M10 A3034 RMK AO2 T10851096
KD95 161755Z AUTO 27007KT 5SM -SN OVC010 M08/M09 A3034 RMK AO2 T10851095 11082 21132
KD95 161735Z AUTO 28007KT 5SM -SN OVC010 M08/M09 A3035 RMK AO2 T10851095
KD95 161715Z AUTO 29006KT 5SM -SN OVC010 M08/M09 A3035 RMK AO2 T10851095
KD95 161655Z AUTO 29003KT 7SM -SN OVC008 M08/M09 A3036 RMK AO2 T10841093
KD95 161635Z AUTO 27007KT 7SM -SN OVC008 M08/M09 A3036 RMK AO2 T10851095
KD95 161615Z AUTO 27005KT 5SM -SN OVC006 M09/M10 A3036 RMK AO2 T10861096
KD95 161555Z AUTO 28005KT 2SM -SN OVC006 M09/M10 A3036 RMK AO2 T10891100
KD95 161535Z AUTO 29005KT 2 1/2SM -SN OVC006 M09/M10 A3037 RMK AO2 VIS 1 3/4V4 T10911102
KD95 161515Z AUTO 32004KT 3/4SM -SN OVC006 M09/M10 A3037 RMK AO2 VIS 1/2V4 T10931104
KD95 161455Z AUTO 26005KT 4SM -SN OVC004 M09/M10 A3036 RMK AO2 T10951105
KD95 161435Z AUTO 27003KT 2SM -SN OVC004 M10/M11 A3036 RMK AO2 T10961108
KD95 161415Z AUTO 27004KT 1/2SM -SN OVC004 M11/M12 A3035 RMK AO2 T11091122